sensor_id;sensor_type;location;lat;lon;timestamp;P1;durP1;ratioP1;P2;durP2;ratioP2
27666;SDS011;15074;50.940;5.282;2023-08-06T00:00:25;1.95;;;1.63;;
27666;SDS011;15074;50.940;5.282;2023-08-06T00:02:51;3.47;;;1.40;;
27666;SDS011;15074;50.940;5.282;2023-08-06T00:05:17;2.65;;;1.25;;
27666;SDS011;15074;50.940;5.282;2023-08-06T00:07:48;2.10;;;1.27;;
27666;SDS011;15074;50.940;5.282;2023-08-06T00:10:14;3.63;;;1.35;;
27666;SDS011;15074;50.940;5.282;2023-08-06T00:12:40;4.28;;;1.00;;
27666;SDS011;15074;50.940;5.282;2023-08-06T00:15:06;2.22;;;1.00;;
27666;SDS011;15074;50.940;5.282;2023-08-06T00:17:33;2.45;;;1.33;;
27666;SDS011;15074;50.940;5.282;2023-08-06T00:19:59;2.40;;;1.13;;
27666;SDS011;15074;50.940;5.282;2023-08-06T00:22:29;3.42;;;1.30;;
27666;SDS011;15074;50.940;5.282;2023-08-06T00:25:02;2.25;;;1.00;;
27666;SDS011;15074;50.940;5.282;2023-08-06T00:27:28;2.95;;;1.27;;
27666;SDS011;15074;50.940;5.282;2023-08-06T00:29:54;2.90;;;1.08;;
27666;SDS011;15074;50.940;5.282;2023-08-06T00:32:21;2.10;;;1.20;;
27666;SDS011;15074;50.940;5.282;2023-08-06T00:34:46;3.45;;;1.30;;
27666;SDS011;15074;50.940;5.282;2023-08-06T00:37:14;6.57;;;1.98;;
27666;SDS011;15074;50.940;5.282;2023-08-06T00:39:41;3.37;;;1.00;;
27666;SDS011;15074;50.940;5.282;2023-08-06T00:42:07;3.05;;;1.00;;
27666;SDS011;15074;50.940;5.282;2023-08-06T00:44:33;4.00;;;1.20;;
27666;SDS011;15074;50.940;5.282;2023-08-06T00:46:58;2.35;;;0.80;;
27666;SDS011;15074;50.940;5.282;2023-08-06T00:49:24;3.28;;;1.38;;
27666;SDS011;15074;50.940;5.282;2023-08-06T00:51:50;2.80;;;1.02;;
27666;SDS011;15074;50.940;5.282;2023-08-06T00:54:16;3.13;;;1.00;;
27666;SDS011;15074;50.940;5.282;2023-08-06T00:56:42;1.90;;;1.33;;
27666;SDS011;15074;50.940;5.282;2023-08-06T00:59:08;2.65;;;1.00;;
27666;SDS011;15074;50.940;5.282;2023-08-06T01:01:35;2.63;;;1.20;;
27666;SDS011;15074;50.940;5.282;2023-08-06T01:04:01;3.65;;;1.00;;
27666;SDS011;15074;50.940;5.282;2023-08-06T01:06:32;2.70;;;0.82;;
27666;SDS011;15074;50.940;5.282;2023-08-06T01:09:02;2.53;;;0.90;;
27666;SDS011;15074;50.940;5.282;2023-08-06T01:11:44;2.58;;;1.00;;
27666;SDS011;15074;50.940;5.282;2023-08-06T01:14:28;3.10;;;0.95;;
27666;SDS011;15074;50.940;5.282;2023-08-06T01:17:11;3.22;;;1.25;;
27666;SDS011;15074;50.940;5.282;2023-08-06T01:19:37;1.73;;;0.95;;
27666;SDS011;15074;50.940;5.282;2023-08-06T01:22:03;3.53;;;1.17;;
27666;SDS011;15074;50.940;5.282;2023-08-06T01:24:29;2.63;;;1.20;;
27666;SDS011;15074;50.940;5.282;2023-08-06T01:26:59;11.77;;;1.52;;
27666;SDS011;15074;50.940;5.282;2023-08-06T01:29:44;2.45;;;1.00;;
27666;SDS011;15074;50.940;5.282;2023-08-06T01:32:14;1.80;;;0.95;;
27666;SDS011;15074;50.940;5.282;2023-08-06T01:34:41;2.23;;;1.00;;
27666;SDS011;15074;50.940;5.282;2023-08-06T01:37:08;3.45;;;0.90;;
27666;SDS011;15074;50.940;5.282;2023-08-06T01:39:35;1.92;;;0.90;;
27666;SDS011;15074;50.940;5.282;2023-08-06T01:42:00;2.22;;;1.35;;
27666;SDS011;15074;50.940;5.282;2023-08-06T01:44:26;3.08;;;1.17;;
27666;SDS011;15074;50.940;5.282;2023-08-06T01:46:52;2.90;;;1.00;;
27666;SDS011;15074;50.940;5.282;2023-08-06T01:49:18;3.10;;;1.00;;
27666;SDS011;15074;50.940;5.282;2023-08-06T01:51:43;2.53;;;1.00;;
27666;SDS011;15074;50.940;5.282;2023-08-06T01:54:09;2.25;;;0.80;;
27666;SDS011;15074;50.940;5.282;2023-08-06T01:56:35;3.40;;;1.20;;
27666;SDS011;15074;50.940;5.282;2023-08-06T01:59:00;4.60;;;1.00;;
27666;SDS011;15074;50.940;5.282;2023-08-06T02:01:26;1.70;;;0.80;;
27666;SDS011;15074;50.940;5.282;2023-08-06T02:03:52;3.42;;;1.00;;
27666;SDS011;15074;50.940;5.282;2023-08-06T02:06:17;1.33;;;0.80;;
27666;SDS011;15074;50.940;5.282;2023-08-06T02:08:43;2.25;;;0.90;;
27666;SDS011;15074;50.940;5.282;2023-08-06T02:11:08;3.60;;;1.38;;
27666;SDS011;15074;50.940;5.282;2023-08-06T02:13:34;1.42;;;0.80;;
27666;SDS011;15074;50.940;5.282;2023-08-06T02:16:00;2.80;;;1.13;;
27666;SDS011;15074;50.940;5.282;2023-08-06T02:18:25;2.58;;;0.95;;
27666;SDS011;15074;50.940;5.282;2023-08-06T02:20:57;3.88;;;1.17;;
27666;SDS011;15074;50.940;5.282;2023-08-06T02:23:24;2.53;;;1.20;;
27666;SDS011;15074;50.940;5.282;2023-08-06T02:25:59;2.17;;;1.17;;
27666;SDS011;15074;50.940;5.282;2023-08-06T02:28:26;2.28;;;0.88;;
27666;SDS011;15074;50.940;5.282;2023-08-06T02:30:52;1.27;;;0.90;;
27666;SDS011;15074;50.940;5.282;2023-08-06T02:33:17;1.50;;;0.73;;
27666;SDS011;15074;50.940;5.282;2023-08-06T02:35:43;1.60;;;0.80;;
27666;SDS011;15074;50.940;5.282;2023-08-06T02:38:09;2.35;;;0.77;;
27666;SDS011;15074;50.940;5.282;2023-08-06T02:40:34;2.22;;;0.95;;
27666;SDS011;15074;50.940;5.282;2023-08-06T02:43:00;3.63;;;1.17;;
27666;SDS011;15074;50.940;5.282;2023-08-06T02:45:25;1.30;;;0.73;;
27666;SDS011;15074;50.940;5.282;2023-08-06T02:47:51;1.70;;;0.70;;
27666;SDS011;15074;50.940;5.282;2023-08-06T02:50:17;2.85;;;0.88;;
27666;SDS011;15074;50.940;5.282;2023-08-06T02:52:42;5.90;;;1.00;;
27666;SDS011;15074;50.940;5.282;2023-08-06T02:55:08;2.15;;;0.98;;
27666;SDS011;15074;50.940;5.282;2023-08-06T02:57:34;3.55;;;0.95;;
27666;SDS011;15074;50.940;5.282;2023-08-06T02:59:59;2.38;;;0.95;;
27666;SDS011;15074;50.940;5.282;2023-08-06T03:02:25;0.98;;;0.70;;
27666;SDS011;15074;50.940;5.282;2023-08-06T03:04:50;3.10;;;0.98;;
27666;SDS011;15074;50.940;5.282;2023-08-06T03:07:16;1.83;;;0.95;;
27666;SDS011;15074;50.940;5.282;2023-08-06T03:09:42;1.98;;;1.00;;
27666;SDS011;15074;50.940;5.282;2023-08-06T03:12:07;3.22;;;1.00;;
27666;SDS011;15074;50.940;5.282;2023-08-06T03:14:33;1.80;;;0.80;;
27666;SDS011;15074;50.940;5.282;2023-08-06T03:16:59;1.50;;;0.98;;
27666;SDS011;15074;50.940;5.282;2023-08-06T03:19:24;6.13;;;1.30;;
27666;SDS011;15074;50.940;5.282;2023-08-06T03:21:50;3.28;;;1.05;;
27666;SDS011;15074;50.940;5.282;2023-08-06T03:24:15;2.53;;;1.10;;
27666;SDS011;15074;50.940;5.282;2023-08-06T03:26:41;3.90;;;1.13;;
27666;SDS011;15074;50.940;5.282;2023-08-06T03:29:07;2.65;;;1.10;;
27666;SDS011;15074;50.940;5.282;2023-08-06T03:31:32;2.72;;;1.98;;
27666;SDS011;15074;50.940;5.282;2023-08-06T03:33:58;4.82;;;1.50;;
27666;SDS011;15074;50.940;5.282;2023-08-06T03:36:23;2.20;;;1.60;;
27666;SDS011;15074;50.940;5.282;2023-08-06T03:38:49;3.15;;;1.95;;
27666;SDS011;15074;50.940;5.282;2023-08-06T03:41:15;4.40;;;2.30;;
27666;SDS011;15074;50.940;5.282;2023-08-06T03:43:40;2.80;;;1.90;;
27666;SDS011;15074;50.940;5.282;2023-08-06T03:46:06;3.63;;;1.95;;
27666;SDS011;15074;50.940;5.282;2023-08-06T03:48:31;4.13;;;2.30;;
27666;SDS011;15074;50.940;5.282;2023-08-06T03:50:57;3.05;;;2.05;;
27666;SDS011;15074;50.940;5.282;2023-08-06T03:53:25;4.80;;;3.08;;
27666;SDS011;15074;50.940;5.282;2023-08-06T03:55:51;5.63;;;3.30;;
27666;SDS011;15074;50.940;5.282;2023-08-06T03:58:17;3.83;;;2.75;;
27666;SDS011;15074;50.940;5.282;2023-08-06T04:00:42;5.30;;;3.95;;
27666;SDS011;15074;50.940;5.282;2023-08-06T04:03:08;9.02;;;4.05;;
27666;SDS011;15074;50.940;5.282;2023-08-06T04:05:33;4.68;;;3.55;;
27666;SDS011;15074;50.940;5.282;2023-08-06T04:07:59;6.32;;;3.28;;
27666;SDS011;15074;50.940;5.282;2023-08-06T04:10:25;5.38;;;3.63;;
27666;SDS011;15074;50.940;5.282;2023-08-06T04:12:51;6.05;;;3.67;;
27666;SDS011;15074;50.940;5.282;2023-08-06T04:15:16;5.13;;;3.60;;
27666;SDS011;15074;50.940;5.282;2023-08-06T04:17:42;5.85;;;4.07;;
27666;SDS011;15074;50.940;5.282;2023-08-06T04:20:08;7.88;;;3.85;;
27666;SDS011;15074;50.940;5.282;2023-08-06T04:22:34;6.32;;;3.83;;
27666;SDS011;15074;50.940;5.282;2023-08-06T04:24:59;4.97;;;3.88;;
27666;SDS011;15074;50.940;5.282;2023-08-06T04:27:25;8.10;;;4.32;;
27666;SDS011;15074;50.940;5.282;2023-08-06T04:29:51;7.53;;;4.43;;
27666;SDS011;15074;50.940;5.282;2023-08-06T04:32:16;5.97;;;4.07;;
27666;SDS011;15074;50.940;5.282;2023-08-06T04:34:44;7.50;;;4.55;;
27666;SDS011;15074;50.940;5.282;2023-08-06T04:37:10;6.22;;;4.47;;
27666;SDS011;15074;50.940;5.282;2023-08-06T04:39:35;7.70;;;4.82;;
27666;SDS011;15074;50.940;5.282;2023-08-06T04:42:01;6.97;;;4.32;;
27666;SDS011;15074;50.940;5.282;2023-08-06T04:44:27;7.60;;;4.63;;
27666;SDS011;15074;50.940;5.282;2023-08-06T04:46:52;9.32;;;4.68;;
27666;SDS011;15074;50.940;5.282;2023-08-06T04:49:20;5.60;;;4.28;;
27666;SDS011;15074;50.940;5.282;2023-08-06T04:51:46;6.03;;;4.38;;
27666;SDS011;15074;50.940;5.282;2023-08-06T04:54:11;9.70;;;4.93;;
27666;SDS011;15074;50.940;5.282;2023-08-06T04:56:37;7.10;;;4.43;;
27666;SDS011;15074;50.940;5.282;2023-08-06T04:59:03;6.40;;;4.93;;
27666;SDS011;15074;50.940;5.282;2023-08-06T05:01:28;7.70;;;4.18;;
27666;SDS011;15074;50.940;5.282;2023-08-06T05:03:54;4.40;;;4.00;;
27666;SDS011;15074;50.940;5.282;2023-08-06T05:06:19;5.32;;;3.97;;
27666;SDS011;15074;50.940;5.282;2023-08-06T05:08:45;4.13;;;3.30;;
27666;SDS011;15074;50.940;5.282;2023-08-06T05:11:11;4.03;;;3.08;;
27666;SDS011;15074;50.940;5.282;2023-08-06T05:13:36;4.65;;;2.60;;
27666;SDS011;15074;50.940;5.282;2023-08-06T05:16:02;4.25;;;2.85;;
27666;SDS011;15074;50.940;5.282;2023-08-06T05:18:28;3.00;;;2.58;;
27666;SDS011;15074;50.940;5.282;2023-08-06T05:20:55;4.87;;;3.17;;
27666;SDS011;15074;50.940;5.282;2023-08-06T05:23:21;3.60;;;2.63;;
27666;SDS011;15074;50.940;5.282;2023-08-06T05:25:46;4.22;;;3.00;;
27666;SDS011;15074;50.940;5.282;2023-08-06T05:28:12;4.38;;;2.63;;
27666;SDS011;15074;50.940;5.282;2023-08-06T05:30:40;2.80;;;2.33;;
27666;SDS011;15074;50.940;5.282;2023-08-06T05:33:06;3.10;;;2.40;;
27666;SDS011;15074;50.940;5.282;2023-08-06T05:35:32;2.13;;;1.70;;
27666;SDS011;15074;50.940;5.282;2023-08-06T05:37:58;2.15;;;1.90;;
27666;SDS011;15074;50.940;5.282;2023-08-06T05:40:24;2.17;;;1.90;;
27666;SDS011;15074;50.940;5.282;2023-08-06T05:42:50;2.28;;;1.80;;
27666;SDS011;15074;50.940;5.282;2023-08-06T05:45:19;2.15;;;1.70;;
27666;SDS011;15074;50.940;5.282;2023-08-06T05:47:44;2.33;;;1.77;;
27666;SDS011;15074;50.940;5.282;2023-08-06T05:50:10;3.85;;;2.00;;
27666;SDS011;15074;50.940;5.282;2023-08-06T05:52:36;3.25;;;2.45;;
27666;SDS011;15074;50.940;5.282;2023-08-06T05:55:02;4.22;;;2.50;;
27666;SDS011;15074;50.940;5.282;2023-08-06T05:57:27;3.30;;;2.42;;
27666;SDS011;15074;50.940;5.282;2023-08-06T05:59:53;3.13;;;2.83;;
27666;SDS011;15074;50.940;5.282;2023-08-06T06:02:19;3.33;;;3.03;;
27666;SDS011;15074;50.940;5.282;2023-08-06T06:04:44;3.47;;;3.17;;
27666;SDS011;15074;50.940;5.282;2023-08-06T06:07:10;4.40;;;4.00;;
27666;SDS011;15074;50.940;5.282;2023-08-06T06:09:36;7.68;;;3.90;;
27666;SDS011;15074;50.940;5.282;2023-08-06T06:12:01;5.05;;;4.20;;
27666;SDS011;15074;50.940;5.282;2023-08-06T06:14:27;6.10;;;4.35;;
27666;SDS011;15074;50.940;5.282;2023-08-06T06:16:53;4.18;;;2.58;;
27666;SDS011;15074;50.940;5.282;2023-08-06T06:19:18;2.10;;;1.33;;
27666;SDS011;15074;50.940;5.282;2023-08-06T06:21:44;1.75;;;1.40;;
27666;SDS011;15074;50.940;5.282;2023-08-06T06:24:09;1.70;;;1.42;;
27666;SDS011;15074;50.940;5.282;2023-08-06T06:26:35;1.90;;;1.60;;
27666;SDS011;15074;50.940;5.282;2023-08-06T06:29:01;1.95;;;1.70;;
27666;SDS011;15074;50.940;5.282;2023-08-06T06:31:27;2.60;;;2.10;;
27666;SDS011;15074;50.940;5.282;2023-08-06T06:33:52;3.13;;;2.75;;
27666;SDS011;15074;50.940;5.282;2023-08-06T06:36:19;3.17;;;2.88;;
27666;SDS011;15074;50.940;5.282;2023-08-06T06:38:45;3.63;;;3.33;;
27666;SDS011;15074;50.940;5.282;2023-08-06T06:41:11;4.63;;;4.05;;
27666;SDS011;15074;50.940;5.282;2023-08-06T06:43:37;5.03;;;4.00;;
27666;SDS011;15074;50.940;5.282;2023-08-06T06:46:04;4.90;;;4.50;;
27666;SDS011;15074;50.940;5.282;2023-08-06T06:48:30;5.22;;;4.75;;
27666;SDS011;15074;50.940;5.282;2023-08-06T06:50:57;5.30;;;4.80;;
27666;SDS011;15074;50.940;5.282;2023-08-06T06:53:23;9.18;;;5.30;;
27666;SDS011;15074;50.940;5.282;2023-08-06T06:56:10;5.93;;;5.40;;
27666;SDS011;15074;50.940;5.282;2023-08-06T06:58:36;5.57;;;5.05;;
27666;SDS011;15074;50.940;5.282;2023-08-06T07:01:03;6.40;;;5.82;;
27666;SDS011;15074;50.940;5.282;2023-08-06T07:03:29;6.40;;;5.80;;
27666;SDS011;15074;50.940;5.282;2023-08-06T07:05:57;5.53;;;5.03;;
27666;SDS011;15074;50.940;5.282;2023-08-06T07:08:24;5.75;;;5.28;;
27666;SDS011;15074;50.940;5.282;2023-08-06T07:10:49;6.00;;;5.50;;
27666;SDS011;15074;50.940;5.282;2023-08-06T07:13:15;6.20;;;5.07;;
27666;SDS011;15074;50.940;5.282;2023-08-06T07:15:41;5.50;;;4.65;;
27666;SDS011;15074;50.940;5.282;2023-08-06T07:18:07;4.13;;;2.65;;
27666;SDS011;15074;50.940;5.282;2023-08-06T07:20:33;3.03;;;2.30;;
27666;SDS011;15074;50.940;5.282;2023-08-06T07:22:59;4.78;;;2.00;;
27666;SDS011;15074;50.940;5.282;2023-08-06T07:25:25;3.22;;;1.75;;
27666;SDS011;15074;50.940;5.282;2023-08-06T07:27:51;3.67;;;1.40;;
27666;SDS011;15074;50.940;5.282;2023-08-06T07:30:16;4.78;;;1.75;;
27666;SDS011;15074;50.940;5.282;2023-08-06T07:32:42;3.33;;;1.88;;
27666;SDS011;15074;50.940;5.282;2023-08-06T07:35:08;2.38;;;1.55;;
27666;SDS011;15074;50.940;5.282;2023-08-06T07:37:37;2.95;;;1.48;;
27666;SDS011;15074;50.940;5.282;2023-08-06T07:40:04;4.30;;;1.90;;
27666;SDS011;15074;50.940;5.282;2023-08-06T07:42:30;3.25;;;1.67;;
27666;SDS011;15074;50.940;5.282;2023-08-06T07:44:56;5.13;;;2.25;;
27666;SDS011;15074;50.940;5.282;2023-08-06T07:47:23;5.10;;;2.33;;
27666;SDS011;15074;50.940;5.282;2023-08-06T07:49:49;5.63;;;2.15;;
27666;SDS011;15074;50.940;5.282;2023-08-06T07:52:14;5.45;;;2.33;;
27666;SDS011;15074;50.940;5.282;2023-08-06T07:54:40;4.03;;;2.00;;
27666;SDS011;15074;50.940;5.282;2023-08-06T07:57:06;4.13;;;2.22;;
27666;SDS011;15074;50.940;5.282;2023-08-06T07:59:32;4.53;;;2.47;;
27666;SDS011;15074;50.940;5.282;2023-08-06T08:01:57;4.93;;;2.90;;
27666;SDS011;15074;50.940;5.282;2023-08-06T08:04:23;3.13;;;1.85;;
27666;SDS011;15074;50.940;5.282;2023-08-06T08:06:49;3.78;;;2.05;;
27666;SDS011;15074;50.940;5.282;2023-08-06T08:09:15;6.38;;;2.67;;
27666;SDS011;15074;50.940;5.282;2023-08-06T08:11:41;3.58;;;2.10;;
27666;SDS011;15074;50.940;5.282;2023-08-06T08:14:07;4.65;;;2.00;;
27666;SDS011;15074;50.940;5.282;2023-08-06T08:16:32;3.42;;;1.60;;
27666;SDS011;15074;50.940;5.282;2023-08-06T08:18:58;3.40;;;2.00;;
27666;SDS011;15074;50.940;5.282;2023-08-06T08:21:24;9.10;;;2.08;;
27666;SDS011;15074;50.940;5.282;2023-08-06T08:23:50;5.28;;;2.13;;
27666;SDS011;15074;50.940;5.282;2023-08-06T08:26:16;3.17;;;1.67;;
27666;SDS011;15074;50.940;5.282;2023-08-06T08:28:42;4.03;;;1.77;;
27666;SDS011;15074;50.940;5.282;2023-08-06T08:31:08;7.30;;;2.17;;
27666;SDS011;15074;50.940;5.282;2023-08-06T08:33:34;5.35;;;2.25;;
27666;SDS011;15074;50.940;5.282;2023-08-06T08:36:00;3.10;;;2.00;;
27666;SDS011;15074;50.940;5.282;2023-08-06T08:38:26;3.65;;;1.92;;
27666;SDS011;15074;50.940;5.282;2023-08-06T08:40:51;5.20;;;2.25;;
27666;SDS011;15074;50.940;5.282;2023-08-06T08:43:22;5.68;;;2.42;;
27666;SDS011;15074;50.940;5.282;2023-08-06T08:45:51;9.20;;;2.58;;
27666;SDS011;15074;50.940;5.282;2023-08-06T08:48:20;4.50;;;2.33;;
27666;SDS011;15074;50.940;5.282;2023-08-06T08:50:48;4.70;;;1.63;;
27666;SDS011;15074;50.940;5.282;2023-08-06T08:53:15;4.20;;;2.10;;
27666;SDS011;15074;50.940;5.282;2023-08-06T08:55:42;8.85;;;2.50;;
27666;SDS011;15074;50.940;5.282;2023-08-06T08:58:09;4.38;;;1.35;;
27666;SDS011;15074;50.940;5.282;2023-08-06T09:00:35;4.03;;;1.20;;
27666;SDS011;15074;50.940;5.282;2023-08-06T09:03:02;5.65;;;1.40;;
27666;SDS011;15074;50.940;5.282;2023-08-06T09:05:31;9.02;;;1.95;;
27666;SDS011;15074;50.940;5.282;2023-08-06T09:08:07;8.18;;;1.70;;
27666;SDS011;15074;50.940;5.282;2023-08-06T09:10:37;8.57;;;1.33;;
27666;SDS011;15074;50.940;5.282;2023-08-06T09:13:05;5.40;;;1.33;;
27666;SDS011;15074;50.940;5.282;2023-08-06T09:15:31;6.43;;;1.42;;
27666;SDS011;15074;50.940;5.282;2023-08-06T09:17:58;4.43;;;1.60;;
27666;SDS011;15074;50.940;5.282;2023-08-06T09:20:24;5.53;;;1.90;;
27666;SDS011;15074;50.940;5.282;2023-08-06T09:22:52;8.63;;;2.00;;
27666;SDS011;15074;50.940;5.282;2023-08-06T09:25:22;7.35;;;1.98;;
27666;SDS011;15074;50.940;5.282;2023-08-06T09:27:51;8.70;;;1.88;;
27666;SDS011;15074;50.940;5.282;2023-08-06T09:30:33;5.55;;;1.70;;
27666;SDS011;15074;50.940;5.282;2023-08-06T09:33:00;3.58;;;1.55;;
27666;SDS011;15074;50.940;5.282;2023-08-06T09:35:30;5.55;;;1.48;;
27666;SDS011;15074;50.940;5.282;2023-08-06T09:38:05;5.95;;;1.60;;
27666;SDS011;15074;50.940;5.282;2023-08-06T09:40:37;6.22;;;1.40;;
27666;SDS011;15074;50.940;5.282;2023-08-06T09:43:04;8.65;;;1.88;;
27666;SDS011;15074;50.940;5.282;2023-08-06T09:45:33;4.05;;;1.20;;
27666;SDS011;15074;50.940;5.282;2023-08-06T09:48:00;20.10;;;1.95;;
27666;SDS011;15074;50.940;5.282;2023-08-06T09:50:30;4.15;;;1.23;;
27666;SDS011;15074;50.940;5.282;2023-08-06T09:52:57;6.40;;;1.55;;
27666;SDS011;15074;50.940;5.282;2023-08-06T09:55:24;4.38;;;1.55;;
27666;SDS011;15074;50.940;5.282;2023-08-06T09:57:51;5.07;;;1.30;;
27666;SDS011;15074;50.940;5.282;2023-08-06T10:00:17;3.15;;;1.58;;
27666;SDS011;15074;50.940;5.282;2023-08-06T10:02:43;10.57;;;2.58;;
27666;SDS011;15074;50.940;5.282;2023-08-06T10:05:10;19.48;;;8.55;;
27666;SDS011;15074;50.940;5.282;2023-08-06T10:07:36;4.63;;;2.03;;
27666;SDS011;15074;50.940;5.282;2023-08-06T10:10:04;3.20;;;1.48;;
27666;SDS011;15074;50.940;5.282;2023-08-06T10:12:32;4.38;;;1.02;;
27666;SDS011;15074;50.940;5.282;2023-08-06T10:15:08;2.70;;;1.00;;
27666;SDS011;15074;50.940;5.282;2023-08-06T10:17:37;2.50;;;1.08;;
27666;SDS011;15074;50.940;5.282;2023-08-06T10:20:04;3.17;;;1.10;;
27666;SDS011;15074;50.940;5.282;2023-08-06T10:24:58;3.30;;;1.00;;
27666;SDS011;15074;50.940;5.282;2023-08-06T10:30:29;5.40;;;1.50;;
27666;SDS011;15074;50.940;5.282;2023-08-06T10:32:57;7.18;;;1.70;;
27666;SDS011;15074;50.940;5.282;2023-08-06T10:38:07;2.63;;;1.48;;
27666;SDS011;15074;50.940;5.282;2023-08-06T10:40:35;4.13;;;1.65;;
27666;SDS011;15074;50.940;5.282;2023-08-06T10:43:02;2.50;;;1.10;;
27666;SDS011;15074;50.940;5.282;2023-08-06T10:45:29;3.08;;;1.17;;
27666;SDS011;15074;50.940;5.282;2023-08-06T10:47:55;1.15;;;0.90;;
27666;SDS011;15074;50.940;5.282;2023-08-06T10:50:25;2.42;;;0.90;;
27666;SDS011;15074;50.940;5.282;2023-08-06T10:52:51;3.75;;;0.98;;
27666;SDS011;15074;50.940;5.282;2023-08-06T10:55:27;2.97;;;0.85;;
27666;SDS011;15074;50.940;5.282;2023-08-06T10:57:54;2.95;;;0.93;;
27666;SDS011;15074;50.940;5.282;2023-08-06T11:00:20;1.95;;;0.80;;
27666;SDS011;15074;50.940;5.282;2023-08-06T11:02:50;2.80;;;0.95;;
27666;SDS011;15074;50.940;5.282;2023-08-06T11:05:17;2.50;;;0.60;;
27666;SDS011;15074;50.940;5.282;2023-08-06T11:07:43;2.38;;;0.75;;
27666;SDS011;15074;50.940;5.282;2023-08-06T11:10:10;2.97;;;0.80;;
27666;SDS011;15074;50.940;5.282;2023-08-06T11:12:36;2.05;;;0.73;;
27666;SDS011;15074;50.940;5.282;2023-08-06T11:15:02;2.80;;;1.02;;
27666;SDS011;15074;50.940;5.282;2023-08-06T11:17:29;2.65;;;0.70;;
27666;SDS011;15074;50.940;5.282;2023-08-06T11:20:03;1.27;;;0.60;;
27666;SDS011;15074;50.940;5.282;2023-08-06T11:22:29;1.55;;;0.60;;
27666;SDS011;15074;50.940;5.282;2023-08-06T11:24:55;1.40;;;0.70;;
27666;SDS011;15074;50.940;5.282;2023-08-06T11:27:21;2.80;;;0.73;;
27666;SDS011;15074;50.940;5.282;2023-08-06T11:29:47;2.03;;;0.85;;
27666;SDS011;15074;50.940;5.282;2023-08-06T11:32:13;4.00;;;1.05;;
27666;SDS011;15074;50.940;5.282;2023-08-06T11:34:39;2.08;;;1.10;;
27666;SDS011;15074;50.940;5.282;2023-08-06T11:37:06;3.00;;;0.90;;
27666;SDS011;15074;50.940;5.282;2023-08-06T11:39:32;3.00;;;0.80;;
27666;SDS011;15074;50.940;5.282;2023-08-06T11:41:59;3.92;;;0.82;;
27666;SDS011;15074;50.940;5.282;2023-08-06T11:44:29;3.05;;;1.00;;
27666;SDS011;15074;50.940;5.282;2023-08-06T11:46:57;2.42;;;0.90;;
27666;SDS011;15074;50.940;5.282;2023-08-06T11:52:18;2.15;;;0.65;;
27666;SDS011;15074;50.940;5.282;2023-08-06T11:55:07;2.20;;;0.60;;
27666;SDS011;15074;50.940;5.282;2023-08-06T11:57:35;4.25;;;0.77;;
27666;SDS011;15074;50.940;5.282;2023-08-06T12:00:04;3.08;;;0.70;;
27666;SDS011;15074;50.940;5.282;2023-08-06T12:02:34;2.28;;;0.95;;
27666;SDS011;15074;50.940;5.282;2023-08-06T12:07:30;2.30;;;0.70;;
27666;SDS011;15074;50.940;5.282;2023-08-06T12:09:57;2.78;;;0.80;;
27666;SDS011;15074;50.940;5.282;2023-08-06T12:12:23;1.92;;;0.63;;
27666;SDS011;15074;50.940;5.282;2023-08-06T12:14:49;2.63;;;0.90;;
27666;SDS011;15074;50.940;5.282;2023-08-06T12:17:15;3.15;;;0.68;;
27666;SDS011;15074;50.940;5.282;2023-08-06T12:19:41;1.92;;;0.70;;
27666;SDS011;15074;50.940;5.282;2023-08-06T12:22:07;2.33;;;0.70;;
27666;SDS011;15074;50.940;5.282;2023-08-06T12:24:33;2.00;;;0.60;;
27666;SDS011;15074;50.940;5.282;2023-08-06T12:26:59;2.17;;;0.60;;
27666;SDS011;15074;50.940;5.282;2023-08-06T12:29:26;1.60;;;0.60;;
27666;SDS011;15074;50.940;5.282;2023-08-06T12:31:53;3.50;;;0.77;;
27666;SDS011;15074;50.940;5.282;2023-08-06T12:34:19;2.30;;;0.70;;
27666;SDS011;15074;50.940;5.282;2023-08-06T12:36:44;2.72;;;0.80;;
27666;SDS011;15074;50.940;5.282;2023-08-06T12:39:10;4.65;;;1.00;;
27666;SDS011;15074;50.940;5.282;2023-08-06T12:41:36;2.38;;;0.93;;
27666;SDS011;15074;50.940;5.282;2023-08-06T12:44:01;1.55;;;0.90;;
27666;SDS011;15074;50.940;5.282;2023-08-06T12:46:27;2.70;;;0.90;;
27666;SDS011;15074;50.940;5.282;2023-08-06T12:48:53;2.40;;;0.80;;
27666;SDS011;15074;50.940;5.282;2023-08-06T12:51:18;2.65;;;0.90;;
27666;SDS011;15074;50.940;5.282;2023-08-06T12:53:44;2.17;;;0.75;;
27666;SDS011;15074;50.940;5.282;2023-08-06T12:56:09;3.58;;;1.10;;
27666;SDS011;15074;50.940;5.282;2023-08-06T12:58:35;4.22;;;0.68;;
27666;SDS011;15074;50.940;5.282;2023-08-06T13:01:01;4.05;;;0.80;;
27666;SDS011;15074;50.940;5.282;2023-08-06T13:03:26;7.85;;;1.05;;
27666;SDS011;15074;50.940;5.282;2023-08-06T13:05:52;4.45;;;1.00;;
27666;SDS011;15074;50.940;5.282;2023-08-06T13:08:18;1.08;;;0.40;;
27666;SDS011;15074;50.940;5.282;2023-08-06T13:10:44;2.05;;;0.60;;
27666;SDS011;15074;50.940;5.282;2023-08-06T13:13:09;4.82;;;0.73;;
27666;SDS011;15074;50.940;5.282;2023-08-06T13:15:35;2.92;;;0.50;;
27666;SDS011;15074;50.940;5.282;2023-08-06T13:18:01;2.10;;;0.63;;
27666;SDS011;15074;50.940;5.282;2023-08-06T13:20:27;2.00;;;0.95;;
27666;SDS011;15074;50.940;5.282;2023-08-06T13:22:55;2.10;;;0.68;;
27666;SDS011;15074;50.940;5.282;2023-08-06T13:25:21;1.73;;;0.70;;
27666;SDS011;15074;50.940;5.282;2023-08-06T13:27:46;2.25;;;0.80;;
27666;SDS011;15074;50.940;5.282;2023-08-06T13:30:12;2.65;;;0.90;;
27666;SDS011;15074;50.940;5.282;2023-08-06T13:32:38;2.17;;;1.13;;
27666;SDS011;15074;50.940;5.282;2023-08-06T13:35:04;2.75;;;1.00;;
27666;SDS011;15074;50.940;5.282;2023-08-06T13:37:30;4.70;;;1.42;;
27666;SDS011;15074;50.940;5.282;2023-08-06T13:39:56;7.65;;;1.10;;
27666;SDS011;15074;50.940;5.282;2023-08-06T13:42:21;1.98;;;1.00;;
27666;SDS011;15074;50.940;5.282;2023-08-06T13:44:47;3.28;;;1.17;;
27666;SDS011;15074;50.940;5.282;2023-08-06T13:47:13;2.55;;;0.95;;
27666;SDS011;15074;50.940;5.282;2023-08-06T13:49:39;4.60;;;1.05;;
27666;SDS011;15074;50.940;5.282;2023-08-06T13:52:04;3.53;;;1.30;;
27666;SDS011;15074;50.940;5.282;2023-08-06T13:54:30;3.90;;;0.95;;
27666;SDS011;15074;50.940;5.282;2023-08-06T13:56:56;3.25;;;0.80;;
27666;SDS011;15074;50.940;5.282;2023-08-06T13:59:21;6.43;;;1.10;;
27666;SDS011;15074;50.940;5.282;2023-08-06T14:01:49;2.33;;;0.90;;
27666;SDS011;15074;50.940;5.282;2023-08-06T14:04:15;2.15;;;0.85;;
27666;SDS011;15074;50.940;5.282;2023-08-06T14:06:41;2.53;;;0.77;;
27666;SDS011;15074;50.940;5.282;2023-08-06T14:09:06;1.10;;;0.63;;
27666;SDS011;15074;50.940;5.282;2023-08-06T14:11:33;1.33;;;0.50;;
27666;SDS011;15074;50.940;5.282;2023-08-06T14:13:59;2.45;;;0.60;;
27666;SDS011;15074;50.940;5.282;2023-08-06T14:16:25;0.82;;;0.43;;
27666;SDS011;15074;50.940;5.282;2023-08-06T14:18:50;0.90;;;0.45;;
27666;SDS011;15074;50.940;5.282;2023-08-06T14:21:16;2.05;;;0.45;;
27666;SDS011;15074;50.940;5.282;2023-08-06T14:23:42;0.70;;;0.30;;
27666;SDS011;15074;50.940;5.282;2023-08-06T14:26:07;1.65;;;0.40;;
27666;SDS011;15074;50.940;5.282;2023-08-06T14:28:35;1.30;;;0.40;;
27666;SDS011;15074;50.940;5.282;2023-08-06T14:31:02;0.75;;;0.40;;
27666;SDS011;15074;50.940;5.282;2023-08-06T14:33:28;1.10;;;0.40;;
27666;SDS011;15074;50.940;5.282;2023-08-06T14:35:54;1.00;;;0.40;;
27666;SDS011;15074;50.940;5.282;2023-08-06T14:38:19;1.08;;;0.30;;
27666;SDS011;15074;50.940;5.282;2023-08-06T14:40:45;0.70;;;0.22;;
27666;SDS011;15074;50.940;5.282;2023-08-06T14:43:11;0.82;;;0.32;;
27666;SDS011;15074;50.940;5.282;2023-08-06T14:45:37;1.17;;;0.30;;
27666;SDS011;15074;50.940;5.282;2023-08-06T14:48:04;1.63;;;0.45;;
27666;SDS011;15074;50.940;5.282;2023-08-06T14:50:30;1.08;;;0.40;;
27666;SDS011;15074;50.940;5.282;2023-08-06T14:52:55;2.40;;;0.45;;
27666;SDS011;15074;50.940;5.282;2023-08-06T14:55:24;0.93;;;0.47;;
27666;SDS011;15074;50.940;5.282;2023-08-06T14:57:50;6.28;;;0.47;;